Airfield :
LOGIN :

Register | Disclaimer

   EN    FR    IT 

 










Legend :    VFR   Marginal VFR   IFR   Intensive IFR   Very Intensive IFR
Visi :
Ceiling :
>= 8 km
>= 3000ft
5 to 8 km
1000 to 3000 ft
1500m to 5 km
500 to 1000 ft
800 to 1500m
200 to 500 ft
< 800m
< 200 ft
Symbols :   Thunderstorms  Fog  Heavy snow  Heavy precipitations  Wind > 20 kt
SIGMETs :     Misc.  Thunderstorms  Icing  Turbulence  Mountain Waves  Volcanic Ashes






- Airport Elevation : 101 ft
- IATA code : GLO


EGBJ - Gloucestershire

CURRENT METAR :
  • 231650Z 19008KT 9999 BKN027 BKN031 13/06 Q1022

EXPIRED METARs :
  • 231620Z 18007KT 9999 BKN028 BKN035 13/07 Q1022
  • 231550Z 19006KT 9999 SCT028 BKN038 13/08 Q1022
  • 231520Z 18007KT 9999 FEW025 SCT029 BKN038 13/08 Q1022
  • 231450Z 19008KT 9999 FEW025 SCT029 BKN041 13/08 Q1022
  • 231420Z 18007KT 150V220 9999 FEW028 SCT034 BKN040 13/07 Q1022

TAF TAF EGBJ
Valid from the 23 at 15:00 until the 23 at 19:00 UTC


231356Z 2315/2319 19007KT 9999 BKN040



MET'MAP, your aeronautical weather chart ! - Copyright ORBIFLY December 2007 - Disclaimer

ORBIFLY MET'MAP TEAM :

Programming & Development : Alexandra Zaïnal
Concept & original design : Baudouin d'Aumeries
Assistance for programming : Marc-Olivier Méhu
Technical & hardware support : Manuel Goepfert

Contact : metmap@orbifly.com




SOURCES & CREDITS :

   NOAA